createdAt,value
2018-06-05T00:00:16.142Z,15.03
2018-06-05T00:02:45.292Z,16.33
2018-06-05T00:05:14.524Z,16.50
2018-06-05T00:07:43.592Z,13.17
2018-06-05T00:10:13.533Z,16.43
2018-06-05T00:12:42.541Z,16.50
2018-06-05T00:15:11.568Z,15.90
2018-06-05T00:17:40.603Z,16.10
2018-06-05T00:20:09.636Z,16.20
2018-06-05T00:22:38.705Z,16.20
2018-06-05T00:25:07.710Z,16.60
2018-06-05T00:27:36.727Z,16.50
2018-06-05T00:30:05.756Z,17.50
2018-06-05T00:32:34.757Z,15.43
2018-06-05T00:35:03.757Z,15.93
2018-06-05T00:37:32.817Z,17.57
2018-06-05T00:40:01.853Z,17.50
2018-06-05T00:42:31.145Z,16.70
2018-06-05T00:45:00.218Z,15.37
2018-06-05T00:47:29.225Z,17.43
2018-06-05T00:49:58.297Z,18.47
2018-06-05T00:52:27.321Z,16.70
2018-06-05T00:54:56.321Z,16.60
2018-06-05T00:57:25.339Z,20.10
2018-06-05T00:59:54.421Z,18.50
2018-06-05T01:02:23.447Z,18.03
2018-06-05T01:04:52.450Z,16.90
2018-06-05T01:07:21.473Z,18.40
2018-06-05T01:09:50.505Z,18.63
2018-06-05T01:12:19.496Z,17.60
2018-06-05T01:14:48.504Z,18.77
2018-06-05T01:17:17.592Z,18.43
2018-06-05T01:19:46.629Z,18.30
2018-06-05T01:22:15.955Z,19.40
2018-06-05T01:24:45.033Z,17.80
2018-06-05T01:27:14.132Z,17.63
2018-06-05T01:29:43.198Z,17.37
2018-06-05T01:32:12.987Z,17.90
2018-06-05T01:34:42.011Z,19.00
2018-06-05T01:37:11.068Z,17.77
2018-06-05T01:39:40.411Z,19.07
2018-06-05T01:42:09.399Z,18.70
2018-06-05T01:44:38.396Z,19.13
2018-06-05T01:47:07.429Z,19.37
2018-06-05T01:49:41.741Z,18.10
2018-06-05T01:52:10.766Z,18.70
2018-06-05T01:54:39.752Z,17.17
2018-06-05T01:57:08.772Z,19.27
2018-06-05T01:59:38.092Z,18.43
2018-06-05T02:02:07.318Z,20.40
2018-06-05T02:04:36.305Z,18.77
2018-06-05T02:07:05.332Z,19.23
2018-06-05T02:09:34.361Z,19.73
2018-06-05T02:12:03.407Z,20.87
2018-06-05T02:14:32.489Z,19.40
2018-06-05T02:17:01.526Z,19.87
2018-06-05T02:19:30.597Z,19.50
2018-06-05T02:21:59.474Z,20.60
2018-06-05T02:24:28.377Z,18.80
2018-06-05T02:26:57.376Z,20.50
2018-06-05T02:29:26.374Z,19.30
2018-06-05T02:31:55.397Z,20.47
2018-06-05T02:34:24.429Z,19.50
2018-06-05T02:36:53.657Z,19.77
2018-06-05T02:39:22.657Z,20.10
2018-06-05T02:41:51.653Z,22.63
2018-06-05T02:44:20.685Z,21.10
2018-06-05T02:46:49.672Z,21.50
2018-06-05T02:49:18.717Z,19.60
2018-06-05T02:51:47.783Z,20.23
2018-06-05T02:54:16.784Z,21.13
2018-06-05T02:56:45.841Z,20.80
2018-06-05T02:59:14.940Z,20.90
2018-06-05T03:01:43.984Z,21.90
2018-06-05T03:04:12.969Z,20.87
2018-06-05T03:06:42.005Z,20.73
2018-06-05T03:09:11.195Z,19.53
2018-06-05T03:11:40.229Z,20.20
2018-06-05T03:14:09.253Z,21.50
2018-06-05T03:16:38.260Z,22.17
2018-06-05T03:19:07.292Z,21.10
2018-06-05T03:21:36.345Z,21.50
2018-06-05T03:24:05.401Z,21.30
2018-06-05T03:26:34.773Z,20.10
2018-06-05T03:29:03.845Z,20.80
2018-06-05T03:31:32.842Z,20.90
2018-06-05T03:34:02.174Z,22.10
2018-06-05T03:36:31.162Z,23.13
2018-06-05T03:39:00.165Z,21.00
2018-06-05T03:41:30.541Z,21.07
2018-06-05T03:43:59.531Z,21.57
2018-06-05T03:46:29.783Z,20.00
2018-06-05T03:48:58.801Z,22.63
2018-06-05T03:51:27.823Z,20.70
2018-06-05T03:53:56.813Z,20.87
2018-06-05T03:56:25.887Z,20.30
2018-06-05T03:58:54.885Z,22.60
2018-06-05T04:01:23.916Z,18.73
2018-06-05T04:03:52.972Z,19.83
2018-06-05T04:06:21.960Z,21.07
2018-06-05T04:08:50.951Z,19.63
2018-06-05T04:11:20.384Z,20.00
2018-06-05T04:13:49.903Z,21.47
2018-06-05T04:16:19.073Z,19.83
2018-06-05T04:18:48.351Z,19.33
2018-06-05T04:21:17.391Z,17.83
2018-06-05T04:23:46.406Z,19.20
2018-06-05T04:26:15.637Z,18.60
2018-06-05T04:28:45.041Z,22.20
2018-06-05T04:31:14.340Z,19.43
2018-06-05T04:33:43.585Z,18.57
2018-06-05T04:36:12.685Z,18.60
2018-06-05T04:38:42.397Z,17.57
2018-06-05T04:41:11.497Z,18.37
2018-06-05T04:43:40.513Z,17.23
2018-06-05T04:46:09.576Z,17.63
2018-06-05T04:48:38.567Z,17.60
2018-06-05T04:51:07.412Z,18.60
2018-06-05T04:53:36.285Z,17.20
2018-06-05T04:56:05.471Z,17.17
2018-06-05T04:58:34.576Z,18.20
2018-06-05T05:01:03.664Z,16.53
2018-06-05T05:03:32.756Z,15.20
2018-06-05T05:06:01.807Z,16.53
2018-06-05T05:08:30.934Z,16.90
2018-06-05T05:11:00.153Z,15.60
2018-06-05T05:13:29.172Z,18.03
2018-06-05T05:15:58.167Z,16.97
2018-06-05T05:18:27.184Z,15.70
2018-06-05T05:20:56.220Z,16.73
2018-06-05T05:23:25.243Z,16.10
2018-06-05T05:25:54.900Z,17.30
2018-06-05T05:28:24.272Z,18.07
2018-06-05T05:30:53.312Z,16.33
2018-06-05T05:33:22.336Z,17.57
2018-06-05T05:35:51.336Z,16.83
2018-06-05T05:38:20.536Z,16.47
2018-06-05T05:40:49.537Z,16.87
2018-06-05T05:43:18.813Z,16.80
2018-06-05T05:45:47.933Z,17.13
2018-06-05T05:48:17.036Z,16.27
2018-06-05T05:50:46.452Z,16.40
2018-06-05T05:53:15.981Z,18.17
2018-06-05T05:55:45.466Z,18.10
2018-06-05T05:58:14.496Z,18.30
2018-06-05T06:00:44.017Z,19.30
2018-06-05T06:03:13.007Z,17.00
2018-06-05T06:05:42.401Z,17.27
2018-06-05T06:08:11.424Z,17.50
2018-06-05T06:10:40.433Z,18.20
2018-06-05T06:13:09.452Z,18.23
2018-06-05T06:15:38.477Z,17.60
2018-06-05T06:18:07.471Z,16.90
2018-06-05T06:20:36.499Z,19.10
2018-06-05T06:23:05.824Z,16.07
2018-06-05T06:25:34.853Z,16.53
2018-06-05T06:28:04.184Z,18.93
2018-06-05T06:30:33.182Z,16.53
2018-06-05T06:33:02.474Z,17.37
2018-06-05T06:35:32.040Z,18.50
2018-06-05T06:38:01.428Z,17.53
2018-06-05T06:40:30.453Z,16.47
2018-06-05T06:42:59.521Z,15.53
2018-06-05T06:45:28.553Z,17.23
2018-06-05T06:47:57.671Z,15.77
2018-06-05T06:50:26.868Z,16.70
2018-06-05T06:52:55.860Z,16.77
2018-06-05T06:55:25.025Z,16.90
2018-06-05T06:57:54.016Z,16.73
2018-06-05T07:00:23.012Z,15.17
2018-06-05T07:02:52.041Z,14.83
2018-06-05T07:05:21.032Z,15.17
2018-06-05T07:07:50.230Z,16.13
2018-06-05T07:10:19.244Z,14.70
2018-06-05T07:12:48.289Z,14.43
2018-06-05T07:15:17.714Z,16.17
2018-06-05T07:17:46.771Z,15.50
2018-06-05T07:20:15.910Z,15.83
2018-06-05T07:22:45.340Z,15.60
2018-06-05T07:25:14.621Z,14.90
2018-06-05T07:27:43.698Z,16.80
2018-06-05T07:30:12.777Z,16.07
2018-06-05T07:32:41.769Z,14.20
2018-06-05T07:35:10.769Z,15.73
2018-06-05T07:37:39.955Z,15.83
2018-06-05T07:40:09.335Z,15.47
2018-06-05T07:42:38.641Z,14.90
2018-06-05T07:45:07.632Z,13.80
2018-06-05T07:47:36.624Z,15.60
2018-06-05T07:50:05.665Z,13.90
2018-06-05T07:52:34.701Z,14.37
2018-06-05T07:55:03.702Z,14.47
2018-06-05T07:57:32.689Z,14.10
2018-06-05T08:00:01.774Z,15.43
2018-06-05T08:02:31.304Z,14.80
2018-06-05T08:05:00.409Z,13.17
2018-06-05T08:07:29.414Z,13.30
2018-06-05T08:09:58.447Z,12.57
2018-06-05T08:12:27.444Z,14.70
2018-06-05T08:14:56.482Z,13.77
2018-06-05T08:17:25.460Z,14.53
2018-06-05T08:19:54.491Z,16.83
2018-06-05T08:22:23.893Z,15.53
2018-06-05T08:24:52.703Z,14.83
2018-06-05T08:27:21.614Z,16.83
2018-06-05T08:29:50.604Z,14.40
2018-06-05T08:32:19.638Z,14.80
2018-06-05T08:34:48.628Z,13.00
2018-06-05T08:37:17.701Z,14.50
2018-06-05T08:39:47.145Z,14.63
2018-06-05T08:42:16.617Z,13.23
2018-06-05T08:44:46.009Z,13.10
2018-06-05T08:47:15.686Z,13.60
2018-06-05T08:49:45.149Z,15.27
2018-06-05T08:52:14.789Z,14.57
2018-06-05T08:54:45.300Z,14.47
2018-06-05T08:57:14.961Z,14.73
2018-06-05T08:59:44.777Z,15.57
2018-06-05T09:02:14.100Z,14.30
2018-06-05T09:04:43.277Z,13.97
2018-06-05T09:07:13.212Z,15.80
2018-06-05T09:09:42.377Z,14.70
2018-06-05T09:12:11.714Z,13.83
2018-06-05T09:14:40.736Z,14.47
2018-06-05T09:17:09.737Z,13.97
2018-06-05T09:19:38.768Z,15.27
2018-06-05T09:22:07.772Z,16.57
2018-06-05T09:24:36.765Z,13.83
2018-06-05T09:27:06.136Z,12.70
2018-06-05T09:29:35.121Z,13.03
2018-06-05T09:32:04.269Z,15.17
2018-06-05T09:34:33.341Z,13.77
2018-06-05T09:37:02.506Z,16.33
2018-06-05T09:39:31.725Z,15.40
2018-06-05T09:42:00.865Z,15.70
2018-06-05T09:44:29.896Z,14.47
2018-06-05T09:46:58.980Z,15.77
2018-06-05T09:49:27.997Z,15.47
2018-06-05T09:51:57.016Z,16.97
2018-06-05T09:54:26.061Z,15.53
2018-06-05T09:56:55.040Z,14.63
2018-06-05T09:59:24.044Z,13.77
2018-06-05T10:01:53.080Z,15.57
2018-06-05T10:04:22.112Z,14.33
2018-06-05T10:06:51.137Z,14.30
2018-06-05T10:09:20.132Z,14.27
2018-06-05T10:11:49.343Z,15.03
2018-06-05T10:14:18.513Z,14.27
2018-06-05T10:16:47.833Z,14.13
2018-06-05T10:19:17.034Z,13.60
2018-06-05T10:21:46.501Z,13.33
2018-06-05T10:24:16.141Z,13.70
2018-06-05T10:26:45.844Z,14.20
2018-06-05T10:29:15.643Z,15.10
2018-06-05T10:31:45.021Z,14.00
2018-06-05T10:34:15.077Z,13.23
2018-06-05T10:36:44.698Z,13.30
2018-06-05T10:39:14.112Z,13.93
2018-06-05T10:41:43.438Z,14.03
2018-06-05T10:44:12.684Z,13.20
2018-06-05T10:46:41.594Z,12.50
2018-06-05T10:49:10.957Z,11.73
2018-06-05T10:51:40.200Z,13.37
2018-06-05T10:54:09.204Z,12.00
2018-06-05T10:56:38.216Z,11.20
2018-06-05T10:59:07.293Z,12.87
2018-06-05T11:01:36.285Z,12.23
2018-06-05T11:04:05.330Z,12.37
2018-06-05T11:06:34.330Z,11.60
2018-06-05T11:09:03.867Z,11.57
2018-06-05T11:11:32.881Z,11.20
2018-06-05T11:14:02.077Z,11.47
2018-06-05T11:16:31.151Z,11.30
2018-06-05T11:19:00.357Z,12.77
2018-06-05T11:21:29.482Z,12.30
2018-06-05T11:23:58.595Z,12.30
2018-06-05T11:26:27.644Z,11.70
2018-06-05T11:28:56.640Z,12.33
2018-06-05T11:31:25.633Z,13.00
2018-06-05T11:33:54.651Z,12.27
2018-06-05T11:36:23.705Z,11.83
2018-06-05T11:38:52.688Z,11.30
2018-06-05T11:41:21.737Z,11.70
2018-06-05T11:43:50.747Z,12.50
2018-06-05T11:46:20.169Z,10.67
2018-06-05T11:48:49.156Z,10.60
2018-06-05T11:51:18.524Z,11.40
2018-06-05T11:53:48.035Z,9.50
2018-06-05T11:56:17.277Z,10.60
2018-06-05T11:58:47.061Z,10.20
2018-06-05T12:01:16.499Z,9.70
2018-06-05T12:03:46.092Z,10.87
2018-06-05T12:06:15.704Z,10.70
2018-06-05T12:08:45.177Z,10.17
2018-06-05T12:11:14.748Z,11.40
2018-06-05T12:13:44.197Z,10.77
2018-06-05T12:16:13.602Z,8.90
2018-06-05T12:18:42.752Z,8.47
2018-06-05T12:21:12.175Z,10.80
2018-06-05T12:23:42.737Z,8.40
2018-06-05T12:26:11.729Z,9.20
2018-06-05T12:28:40.877Z,9.50
2018-06-05T12:31:09.870Z,9.07
2018-06-05T12:33:38.959Z,9.20
2018-06-05T12:36:07.985Z,9.60
2018-06-05T12:38:36.977Z,9.60
2018-06-05T12:41:05.924Z,9.33
2018-06-05T12:43:34.820Z,7.77
2018-06-05T12:46:03.812Z,10.00
2018-06-05T12:48:32.849Z,9.60
2018-06-05T12:51:02.185Z,8.73
2018-06-05T12:53:31.354Z,7.93
2018-06-05T12:56:00.365Z,7.73
2018-06-05T12:58:29.550Z,8.27
2018-06-05T13:00:58.585Z,8.97
2018-06-05T13:03:27.637Z,7.57
2018-06-05T13:05:56.612Z,7.90
2018-06-05T13:08:25.792Z,8.10
2018-06-05T13:10:54.809Z,8.93
2018-06-05T13:13:23.819Z,7.73
2018-06-05T13:15:52.810Z,9.23
2018-06-05T13:18:21.825Z,7.77
2018-06-05T13:20:50.896Z,8.50
2018-06-05T13:23:20.144Z,9.27
2018-06-05T13:25:49.185Z,8.93
2018-06-05T13:28:18.179Z,7.20
2018-06-05T13:30:47.258Z,8.37
2018-06-05T13:33:16.561Z,7.93
2018-06-05T13:35:45.803Z,9.23
2018-06-05T13:38:15.170Z,9.57
2018-06-05T13:40:44.647Z,10.40
2018-06-05T13:43:13.830Z,10.00
2018-06-05T13:45:43.647Z,10.57
2018-06-05T13:48:13.364Z,10.10
2018-06-05T13:50:42.440Z,10.10
2018-06-05T13:53:11.500Z,9.67
2018-06-05T13:55:40.511Z,11.30
2018-06-05T13:58:09.541Z,10.40
2018-06-05T14:00:39.289Z,11.47
2018-06-05T14:03:08.335Z,10.40
2018-06-05T14:05:37.331Z,10.60
2018-06-05T14:08:06.346Z,10.83
2018-06-05T14:10:35.385Z,11.10
2018-06-05T14:13:04.428Z,11.50
2018-06-05T14:15:34.183Z,10.30
2018-06-05T14:18:04.045Z,9.53
2018-06-05T14:20:33.747Z,11.67
2018-06-05T14:23:04.456Z,11.20
2018-06-05T14:25:34.132Z,10.67
2018-06-05T14:28:03.134Z,9.70
2018-06-05T14:30:32.195Z,10.53
2018-06-05T14:33:01.392Z,10.00
2018-06-05T14:35:30.472Z,9.87
2018-06-05T14:37:59.565Z,10.33
2018-06-05T14:40:28.665Z,8.93
2018-06-05T14:42:58.007Z,9.87
2018-06-05T14:45:27.059Z,10.07
2018-06-05T14:47:55.997Z,9.83
2018-06-05T14:50:25.136Z,10.60
2018-06-05T14:52:54.280Z,8.77
2018-06-05T14:55:24.022Z,11.33
2018-06-05T14:57:53.052Z,9.30
2018-06-05T15:00:22.354Z,8.77
2018-06-05T15:02:51.350Z,10.50
2018-06-05T15:05:20.368Z,9.50
2018-06-05T15:07:49.385Z,8.70
2018-06-05T15:10:18.489Z,8.83
2018-06-05T15:12:47.896Z,9.10
2018-06-05T15:15:17.274Z,8.37
2018-06-05T15:17:46.388Z,8.30
2018-06-05T15:20:16.156Z,8.53
2018-06-05T15:22:45.843Z,7.87
2018-06-05T15:25:15.435Z,8.23
2018-06-05T15:27:45.164Z,8.47
2018-06-05T15:30:14.716Z,7.80
2018-06-05T15:32:44.179Z,8.10
2018-06-05T15:35:13.345Z,8.87
2018-06-05T15:37:42.538Z,9.60
2018-06-05T15:40:11.636Z,7.87
2018-06-05T15:42:40.733Z,9.00
2018-06-05T15:45:09.879Z,7.23
2018-06-05T15:47:38.976Z,7.60
2018-06-05T15:50:08.256Z,7.50
2018-06-05T15:52:37.247Z,8.40
2018-06-05T15:55:06.270Z,9.10
2018-06-05T15:57:35.649Z,8.10
2018-06-05T16:00:05.174Z,9.20
2018-06-05T16:02:34.185Z,8.30
2018-06-05T16:05:03.254Z,9.70
2018-06-05T16:07:32.337Z,8.70
2018-06-05T16:10:01.646Z,8.00
2018-06-05T16:12:31.074Z,7.70
2018-06-05T16:15:00.196Z,8.93
2018-06-05T16:17:29.771Z,8.33
2018-06-05T16:19:58.823Z,9.30
2018-06-05T16:22:28.290Z,9.03
2018-06-05T16:24:57.326Z,8.87
2018-06-05T16:27:26.319Z,8.63
2018-06-05T16:29:55.396Z,8.03
2018-06-05T16:32:24.389Z,7.80
2018-06-05T16:34:53.421Z,9.07
2018-06-05T16:37:22.510Z,8.23
2018-06-05T16:39:51.545Z,7.63
2018-06-05T16:42:20.537Z,8.20
2018-06-05T16:44:49.564Z,8.23
2018-06-05T16:47:18.596Z,7.87
2018-06-05T16:49:47.617Z,9.20
2018-06-05T16:52:16.668Z,8.33
2018-06-05T16:54:45.851Z,8.27
2018-06-05T16:57:15.086Z,8.80
2018-06-05T16:59:45.076Z,7.27
2018-06-05T17:02:14.489Z,7.73
2018-06-05T17:04:43.722Z,8.13
2018-06-05T17:07:13.840Z,8.23
2018-06-05T17:09:44.127Z,7.40
2018-06-05T17:12:13.346Z,7.07
2018-06-05T17:14:42.374Z,6.83
2018-06-05T17:17:11.402Z,8.00
2018-06-05T17:19:40.577Z,7.67
2018-06-05T17:22:09.958Z,8.33
2018-06-05T17:24:39.007Z,6.50
2018-06-05T17:27:08.637Z,7.53
2018-06-05T17:29:38.088Z,5.97
2018-06-05T17:32:07.070Z,4.30
2018-06-05T17:34:36.205Z,2.43
2018-06-05T17:37:06.169Z,3.03
2018-06-05T17:39:34.959Z,1.13
2018-06-05T17:42:03.954Z,1.10
2018-06-05T17:44:33.205Z,1.03
2018-06-05T17:47:02.208Z,0.83
2018-06-05T17:49:31.322Z,0.80
2018-06-05T17:52:00.728Z,0.90
2018-06-05T17:54:29.740Z,1.00
2018-06-05T17:56:58.757Z,1.03
2018-06-05T17:59:28.261Z,1.00
2018-06-05T18:01:57.264Z,0.80
2018-06-05T18:04:26.282Z,1.10
2018-06-05T18:06:55.128Z,0.87
2018-06-05T18:09:24.191Z,0.70
2018-06-05T18:11:54.177Z,0.80
2018-06-05T18:14:24.392Z,1.20
2018-06-05T18:16:53.399Z,1.17
2018-06-05T18:19:22.464Z,0.70
2018-06-05T18:21:51.560Z,0.70
2018-06-05T18:24:20.748Z,0.90
2018-06-05T18:26:49.788Z,0.60
2018-06-05T18:29:18.883Z,0.57
2018-06-05T18:31:48.614Z,0.50
2018-06-05T18:34:17.792Z,0.60
2018-06-05T18:36:46.816Z,0.80
2018-06-05T18:39:16.229Z,0.60
2018-06-05T18:41:45.718Z,1.80
2018-06-05T18:44:14.948Z,0.60
2018-06-05T18:46:44.521Z,0.50
2018-06-05T18:49:13.672Z,0.50
2018-06-05T18:51:42.917Z,0.63
2018-06-05T18:54:12.049Z,0.60
2018-06-05T18:56:41.373Z,0.73
2018-06-05T18:59:10.405Z,0.60
2018-06-05T19:01:39.602Z,0.67
2018-06-05T19:04:08.830Z,0.60
2018-06-05T19:06:37.850Z,0.63
2018-06-05T19:09:08.306Z,0.70
2018-06-05T19:11:37.475Z,0.77
2018-06-05T19:14:06.581Z,0.80
2018-06-05T19:16:35.613Z,0.60
2018-06-05T19:19:04.645Z,0.67
2018-06-05T19:21:33.437Z,0.70
2018-06-05T19:24:02.530Z,0.77
2018-06-05T19:26:31.643Z,1.37
2018-06-05T19:29:00.765Z,1.40
2018-06-05T19:31:29.875Z,0.77
2018-06-05T19:33:58.995Z,0.60
2018-06-05T19:36:28.127Z,0.60
2018-06-05T19:38:57.406Z,0.70
2018-06-05T19:41:26.442Z,0.50
2018-06-05T19:43:55.417Z,0.60
2018-06-05T19:46:24.860Z,0.80
2018-06-05T19:48:53.825Z,0.70
2018-06-05T19:51:22.876Z,0.60
2018-06-05T19:53:51.952Z,0.80
2018-06-05T19:56:21.030Z,0.77
2018-06-05T19:58:50.115Z,0.77
2018-06-05T20:01:19.120Z,1.00
2018-06-05T20:03:48.289Z,0.73
2018-06-05T20:06:17.439Z,1.20
2018-06-05T20:08:46.613Z,0.70
2018-06-05T20:11:15.956Z,1.20
2018-06-05T20:13:45.356Z,0.70
2018-06-05T20:16:15.147Z,0.97
2018-06-05T20:18:44.245Z,1.23
2018-06-05T20:21:14.084Z,0.70
2018-06-05T20:23:44.139Z,0.90
2018-06-05T20:26:13.269Z,1.20
2018-06-05T20:28:42.820Z,0.80
2018-06-05T20:31:11.805Z,1.20
2018-06-05T20:33:40.833Z,1.00
2018-06-05T20:36:09.928Z,0.70
2018-06-05T20:38:38.982Z,0.80
2018-06-05T20:41:08.344Z,0.93
2018-06-05T20:43:37.321Z,0.73
2018-06-05T20:46:06.335Z,0.80
2018-06-05T20:48:35.330Z,0.77
2018-06-05T20:51:04.392Z,1.27
2018-06-05T20:53:33.540Z,1.10
2018-06-05T20:56:02.602Z,0.80
2018-06-05T20:58:31.737Z,0.80
2018-06-05T21:01:00.900Z,0.80
2018-06-05T21:03:29.963Z,0.77
2018-06-05T21:05:59.028Z,0.77
2018-06-05T21:08:28.040Z,0.80
2018-06-05T21:10:57.059Z,0.80
2018-06-05T21:13:26.129Z,1.60
2018-06-05T21:15:55.157Z,1.17
2018-06-05T21:18:24.201Z,1.00
2018-06-05T21:20:53.211Z,0.90
2018-06-05T21:23:22.242Z,0.80
2018-06-05T21:25:51.243Z,0.70
2018-06-05T21:28:20.429Z,0.80
2018-06-05T21:30:49.481Z,1.00
2018-06-05T21:33:18.469Z,1.00
2018-06-05T21:35:47.576Z,1.10
2018-06-05T21:38:16.599Z,0.93
2018-06-05T21:40:45.930Z,1.03
2018-06-05T21:43:15.208Z,1.20
2018-06-05T21:45:44.272Z,0.80
2018-06-05T21:48:13.333Z,1.10
2018-06-05T21:50:42.212Z,1.40
2018-06-05T21:53:11.168Z,0.80
2018-06-05T21:55:40.258Z,1.93
2018-06-05T21:58:09.308Z,1.10
2018-06-05T22:00:38.060Z,1.00
2018-06-05T22:03:07.305Z,1.10
2018-06-05T22:05:36.288Z,1.40
2018-06-05T22:08:05.265Z,1.17
2018-06-05T22:10:34.309Z,1.13
2018-06-05T22:13:03.300Z,1.00
2018-06-05T22:15:32.463Z,0.90
2018-06-05T22:18:01.520Z,1.50
2018-06-05T22:20:30.852Z,0.97
2018-06-05T22:22:59.900Z,0.80
2018-06-05T22:25:28.928Z,0.97
2018-06-05T22:27:57.936Z,0.77
2018-06-05T22:30:26.923Z,0.90
2018-06-05T22:32:55.989Z,0.90
2018-06-05T22:35:24.989Z,0.77
2018-06-05T22:37:54.008Z,0.90
2018-06-05T22:40:22.999Z,0.90
2018-06-05T22:42:51.985Z,1.00
2018-06-05T22:45:21.000Z,0.80
2018-06-05T22:47:49.976Z,0.90
2018-06-05T22:50:19.000Z,1.00
2018-06-05T22:52:48.037Z,0.90
2018-06-05T22:55:17.071Z,1.10
2018-06-05T22:57:46.215Z,1.00
2018-06-05T23:00:22.101Z,0.80
2018-06-05T23:02:50.897Z,1.00
2018-06-05T23:05:19.945Z,0.80
2018-06-05T23:07:48.938Z,1.27
2018-06-05T23:10:17.986Z,0.80
2018-06-05T23:12:47.041Z,0.90
2018-06-05T23:15:16.174Z,0.80
2018-06-05T23:17:45.529Z,1.10
2018-06-05T23:20:14.860Z,0.90
2018-06-05T23:22:44.422Z,0.73
2018-06-05T23:25:13.784Z,0.90
2018-06-05T23:27:42.941Z,0.90
2018-06-05T23:30:12.077Z,0.90
2018-06-05T23:32:41.096Z,0.70
2018-06-05T23:35:10.081Z,1.63
2018-06-05T23:37:39.073Z,0.80
2018-06-05T23:40:08.088Z,0.70
2018-06-05T23:42:37.181Z,0.80
2018-06-05T23:45:06.173Z,0.70
2018-06-05T23:47:35.237Z,0.70
2018-06-05T23:50:04.541Z,0.77
2018-06-05T23:52:33.420Z,1.70
2018-06-05T23:55:02.427Z,1.30
2018-06-05T23:57:31.481Z,0.90
